createdAt,value
2023-04-17T00:01:15.732Z,36.37
2023-04-17T00:03:42.381Z,31.63
2023-04-17T00:06:08.938Z,31.60
2023-04-17T00:08:35.724Z,30.37
2023-04-17T00:11:07.706Z,31.27
2023-04-17T00:13:35.805Z,35.60
2023-04-17T00:16:02.817Z,32.00
2023-04-17T00:18:29.757Z,30.90
2023-04-17T00:20:56.198Z,35.03
2023-04-17T00:23:23.027Z,31.20
2023-04-17T00:25:49.888Z,34.10
2023-04-17T00:28:16.339Z,35.93
2023-04-17T00:30:43.148Z,31.70
2023-04-17T00:33:10.014Z,32.23
2023-04-17T00:35:36.901Z,32.15
2023-04-17T00:38:03.570Z,31.05
2023-04-17T00:40:30.080Z,31.53
2023-04-17T00:43:01.235Z,31.53
2023-04-17T00:45:28.407Z,31.10
2023-04-17T00:47:57.604Z,33.57
2023-04-17T00:50:26.250Z,30.57
2023-04-17T00:52:52.752Z,32.13
2023-04-17T00:55:20.674Z,32.33
2023-04-17T00:57:47.848Z,32.50
2023-04-17T01:00:14.817Z,31.80
2023-04-17T01:02:42.175Z,31.40
2023-04-17T01:05:09.420Z,32.15
2023-04-17T01:07:37.542Z,30.03
2023-04-17T01:10:04.276Z,33.00
2023-04-17T01:12:31.079Z,33.03
2023-04-17T01:14:57.704Z,34.37
2023-04-17T01:17:25.114Z,33.33
2023-04-17T01:19:52.203Z,33.93
2023-04-17T01:22:19.281Z,40.40
2023-04-17T01:24:45.874Z,33.60
2023-04-17T01:27:13.163Z,34.07
2023-04-17T01:29:40.531Z,35.20
2023-04-17T01:32:08.047Z,33.37
2023-04-17T01:34:37.326Z,33.37
2023-04-17T01:37:04.724Z,36.13
2023-04-17T01:39:31.572Z,34.30
2023-04-17T01:41:58.546Z,34.97
2023-04-17T01:44:25.152Z,34.30
2023-04-17T01:46:51.950Z,36.97
2023-04-17T01:49:18.440Z,39.67
2023-04-17T01:51:44.902Z,36.50
2023-04-17T01:54:11.773Z,37.67
2023-04-17T01:56:38.611Z,34.07
2023-04-17T01:59:05.457Z,37.40
2023-04-17T02:01:32.008Z,38.53
2023-04-17T02:03:58.699Z,38.40
2023-04-17T02:06:25.622Z,38.30
2023-04-17T02:08:52.485Z,35.73
2023-04-17T02:11:19.304Z,36.53
2023-04-17T02:13:46.165Z,36.63
2023-04-17T02:16:13.089Z,36.70
2023-04-17T02:18:40.968Z,41.13
2023-04-17T02:21:07.923Z,35.73
2023-04-17T02:23:34.582Z,37.37
2023-04-17T02:26:01.024Z,41.53
2023-04-17T02:28:27.821Z,37.53
2023-04-17T02:30:54.601Z,37.60
2023-04-17T02:33:21.124Z,39.83
2023-04-17T02:35:48.005Z,36.03
2023-04-17T02:38:14.474Z,41.90
2023-04-17T02:40:41.045Z,38.67
2023-04-17T02:43:07.850Z,40.23
2023-04-17T02:45:34.654Z,39.53
2023-04-17T02:48:02.062Z,37.87
2023-04-17T02:50:29.122Z,36.60
2023-04-17T02:52:55.566Z,38.20
2023-04-17T02:55:22.101Z,38.30
2023-04-17T02:57:48.544Z,43.60
2023-04-17T03:00:15.378Z,36.67
2023-04-17T03:02:42.067Z,37.70
2023-04-17T03:05:09.424Z,39.97
2023-04-17T03:07:36.296Z,37.93
2023-04-17T03:10:02.818Z,41.27
2023-04-17T03:12:29.541Z,40.23
2023-04-17T03:14:56.442Z,36.70
2023-04-17T03:17:23.518Z,44.03
2023-04-17T03:19:50.411Z,39.73
2023-04-17T03:22:17.286Z,39.20
2023-04-17T03:24:44.157Z,38.33
2023-04-17T03:27:10.639Z,39.17
2023-04-17T03:29:37.107Z,40.00
2023-04-17T03:32:04.151Z,43.07
2023-04-17T03:34:31.331Z,39.43
2023-04-17T03:36:58.290Z,46.23
2023-04-17T03:39:25.142Z,41.43
2023-04-17T03:41:51.598Z,40.43
2023-04-17T03:44:18.050Z,39.60
2023-04-17T03:46:44.795Z,39.23
2023-04-17T03:49:11.415Z,45.87
2023-04-17T03:51:38.030Z,41.07
2023-04-17T03:54:04.840Z,39.53
2023-04-17T03:56:31.263Z,42.30
2023-04-17T03:58:57.976Z,41.63
2023-04-17T04:01:24.513Z,46.57
2023-04-17T04:03:51.025Z,40.17
2023-04-17T04:06:17.891Z,41.60
2023-04-17T04:08:44.332Z,48.33
2023-04-17T04:11:10.758Z,43.07
2023-04-17T04:13:37.212Z,42.00
2023-04-17T04:16:03.697Z,42.23
2023-04-17T04:18:30.345Z,47.63
2023-04-17T04:20:56.803Z,43.40
2023-04-17T04:23:23.563Z,43.93
2023-04-17T04:25:50.136Z,51.67
2023-04-17T04:28:16.781Z,44.43
2023-04-17T04:30:43.700Z,45.70
2023-04-17T04:33:10.511Z,45.03
2023-04-17T04:35:38.495Z,45.73
2023-04-17T04:38:05.162Z,42.57
2023-04-17T04:40:33.603Z,49.07
2023-04-17T04:43:00.054Z,42.20
2023-04-17T04:45:26.891Z,44.73
2023-04-17T04:47:53.449Z,46.40
2023-04-17T04:50:19.965Z,41.87
2023-04-17T04:52:46.769Z,41.13
2023-04-17T04:55:13.301Z,49.37
2023-04-17T04:57:40.186Z,41.87
2023-04-17T05:00:07.245Z,41.83
2023-04-17T05:02:34.402Z,40.97
2023-04-17T05:05:01.136Z,42.03
2023-04-17T05:07:27.824Z,41.10
2023-04-17T05:09:54.680Z,44.03
2023-04-17T05:12:21.150Z,41.47
2023-04-17T05:14:47.943Z,43.20
2023-04-17T05:17:14.407Z,44.90
2023-04-17T05:19:41.286Z,44.17
2023-04-17T05:22:07.738Z,43.37
2023-04-17T05:24:34.581Z,46.57
2023-04-17T05:27:01.560Z,42.07
2023-04-17T05:29:28.175Z,40.93
2023-04-17T05:31:54.954Z,47.97
2023-04-17T05:34:21.452Z,45.23
2023-04-17T05:36:48.396Z,42.40
2023-04-17T05:39:14.922Z,43.93
2023-04-17T05:41:41.883Z,43.13
2023-04-17T05:44:08.456Z,43.33
2023-04-17T05:46:35.150Z,40.93
2023-04-17T05:49:01.625Z,41.27
2023-04-17T05:51:28.378Z,41.50
2023-04-17T05:53:54.830Z,42.27
2023-04-17T05:56:21.798Z,43.00
2023-04-17T05:58:48.266Z,44.10
2023-04-17T06:01:14.856Z,43.63
2023-04-17T06:03:41.811Z,43.73
2023-04-17T06:06:08.437Z,43.83
2023-04-17T06:08:34.889Z,40.73
2023-04-17T06:11:01.704Z,38.97
2023-04-17T06:13:28.614Z,41.03
2023-04-17T06:15:55.073Z,41.07
2023-04-17T06:18:21.861Z,42.07
2023-04-17T06:20:48.804Z,42.83
2023-04-17T06:23:15.244Z,41.30
2023-04-17T06:25:42.036Z,41.20
2023-04-17T06:28:08.558Z,41.33
2023-04-17T06:30:35.485Z,38.03
2023-04-17T06:33:02.069Z,41.97
2023-04-17T06:35:29.267Z,38.57
2023-04-17T06:37:55.716Z,40.03
2023-04-17T06:40:22.381Z,39.50
2023-04-17T06:42:49.281Z,40.57
2023-04-17T06:45:15.887Z,39.13
2023-04-17T06:47:45.437Z,40.10
2023-04-17T06:50:11.963Z,40.33
2023-04-17T06:52:38.807Z,38.40
2023-04-17T06:55:05.583Z,39.13
2023-04-17T06:57:32.494Z,36.57
2023-04-17T06:59:58.985Z,36.77
2023-04-17T07:02:25.959Z,37.60
2023-04-17T07:04:52.646Z,37.93
2023-04-17T07:07:19.531Z,37.27
2023-04-17T07:09:46.007Z,35.07
2023-04-17T07:12:12.842Z,33.70
2023-04-17T07:14:39.775Z,37.30
2023-04-17T07:17:07.059Z,35.50
2023-04-17T07:19:34.522Z,35.90
2023-04-17T07:22:01.328Z,35.00
2023-04-17T07:24:28.164Z,35.00
2023-04-17T07:26:55.006Z,33.87
2023-04-17T07:29:21.478Z,35.83
2023-04-17T07:31:48.275Z,33.93
2023-04-17T07:34:14.712Z,35.53
2023-04-17T07:36:41.174Z,34.00
2023-04-17T07:39:08.002Z,33.27
2023-04-17T07:41:34.823Z,34.33
2023-04-17T07:44:01.302Z,32.77
2023-04-17T07:46:28.149Z,32.57
2023-04-17T07:48:54.664Z,31.00
2023-04-17T07:51:21.486Z,32.33
2023-04-17T07:53:48.282Z,30.80
2023-04-17T07:56:15.059Z,32.93
2023-04-17T07:58:41.510Z,32.43
2023-04-17T08:01:08.401Z,31.47
2023-04-17T08:03:35.088Z,32.03
2023-04-17T08:06:02.061Z,32.00
2023-04-17T08:08:28.926Z,31.47
2023-04-17T08:10:55.373Z,32.10
2023-04-17T08:13:22.345Z,31.77
2023-04-17T08:15:48.831Z,32.10
2023-04-17T08:18:15.614Z,31.63
2023-04-17T08:20:42.073Z,31.03
2023-04-17T08:23:08.927Z,29.80
2023-04-17T08:25:35.619Z,31.00
2023-04-17T08:28:02.454Z,29.73
2023-04-17T08:30:28.913Z,28.23
2023-04-17T08:32:55.832Z,29.43
2023-04-17T08:35:22.768Z,27.37
2023-04-17T08:37:49.265Z,29.07
2023-04-17T08:40:16.633Z,29.03
2023-04-17T08:42:43.299Z,29.30
2023-04-17T08:45:14.563Z,29.33
2023-04-17T08:47:42.147Z,29.63
2023-04-17T08:50:19.135Z,27.83
2023-04-17T08:52:47.536Z,27.37
2023-04-17T08:55:19.563Z,27.47
2023-04-17T08:58:00.021Z,26.87
2023-04-17T09:00:31.515Z,28.20
2023-04-17T09:02:59.409Z,27.57
2023-04-17T09:05:27.926Z,26.50
2023-04-17T09:08:07.032Z,27.27
2023-04-17T09:10:53.715Z,26.87
2023-04-17T09:13:25.431Z,26.17
2023-04-17T09:16:10.850Z,24.60
2023-04-17T09:18:39.459Z,26.33
2023-04-17T09:21:06.959Z,25.30
2023-04-17T09:23:52.516Z,24.43
2023-04-17T09:26:32.154Z,23.77
2023-04-17T09:29:12.337Z,23.03
2023-04-17T09:31:41.650Z,24.17
2023-04-17T09:34:09.619Z,24.03
2023-04-17T09:36:37.500Z,23.07
2023-04-17T09:39:15.844Z,24.17
2023-04-17T09:41:42.714Z,23.47
2023-04-17T09:44:09.628Z,23.63
2023-04-17T09:46:43.757Z,23.23
2023-04-17T09:49:37.295Z,22.70
2023-04-17T09:52:04.442Z,22.27
2023-04-17T09:54:30.988Z,21.20
2023-04-17T09:57:00.991Z,21.50
2023-04-17T09:59:28.293Z,22.93
2023-04-17T10:01:55.349Z,22.43
2023-04-17T10:04:22.704Z,19.97
2023-04-17T10:06:50.370Z,20.87
2023-04-17T10:09:16.819Z,19.90
2023-04-17T10:11:47.191Z,20.90
2023-04-17T10:14:35.451Z,21.07
2023-04-17T10:17:26.262Z,18.10
2023-04-17T10:19:52.821Z,17.10
2023-04-17T10:22:19.615Z,15.70
2023-04-17T10:25:13.359Z,16.27
2023-04-17T10:27:40.590Z,16.07
2023-04-17T10:30:08.168Z,16.23
2023-04-17T10:32:35.023Z,16.50
2023-04-17T10:35:22.293Z,17.30
2023-04-17T10:37:49.070Z,16.83
2023-04-17T10:40:20.375Z,17.50
2023-04-17T10:43:14.688Z,17.93
2023-04-17T10:46:03.584Z,17.20
2023-04-17T10:48:48.113Z,17.50
2023-04-17T10:51:23.659Z,17.67
2023-04-17T10:53:52.144Z,17.03
2023-04-17T10:56:40.532Z,17.57
2023-04-17T10:59:11.873Z,17.83
2023-04-17T11:01:38.708Z,18.47
2023-04-17T11:04:06.417Z,17.27
2023-04-17T11:06:37.610Z,17.40
2023-04-17T11:09:08.490Z,16.93
2023-04-17T11:11:44.971Z,16.70
2023-04-17T11:14:14.833Z,16.47
2023-04-17T11:16:43.382Z,16.57
2023-04-17T11:19:11.318Z,17.70
2023-04-17T11:21:44.891Z,16.37
2023-04-17T11:24:11.630Z,18.20
2023-04-17T11:26:47.990Z,17.23
2023-04-17T11:29:18.866Z,16.70
2023-04-17T11:31:46.495Z,16.47
2023-04-17T11:34:14.029Z,16.53
2023-04-17T11:36:40.855Z,14.87
2023-04-17T11:39:07.963Z,14.53
2023-04-17T11:41:38.400Z,15.13
2023-04-17T11:44:09.628Z,15.97
2023-04-17T11:46:36.308Z,15.33
2023-04-17T11:49:06.806Z,14.97
2023-04-17T11:51:33.656Z,14.63
2023-04-17T11:54:00.582Z,14.50
2023-04-17T11:56:27.547Z,14.73
2023-04-17T11:58:55.616Z,13.80
2023-04-17T12:01:27.251Z,15.00
2023-04-17T12:03:55.550Z,14.17
2023-04-17T12:06:22.878Z,13.73
2023-04-17T12:08:51.271Z,14.47
2023-04-17T12:11:23.098Z,15.20
2023-04-17T12:13:49.878Z,13.83
2023-04-17T12:16:16.804Z,14.30
2023-04-17T12:18:43.312Z,14.23
2023-04-17T12:21:10.449Z,13.57
2023-04-17T12:23:37.417Z,13.37
2023-04-17T12:26:04.159Z,14.10
2023-04-17T12:28:30.610Z,12.57
2023-04-17T12:30:57.061Z,13.27
2023-04-17T12:33:23.662Z,12.97
2023-04-17T12:35:50.821Z,12.33
2023-04-17T12:38:17.495Z,12.47
2023-04-17T12:40:44.218Z,12.15
2023-04-17T12:43:11.034Z,11.77
2023-04-17T12:45:38.324Z,11.60
2023-04-17T12:48:07.280Z,12.40
2023-04-17T12:50:33.968Z,12.43
2023-04-17T12:53:00.758Z,11.93
2023-04-17T12:55:27.217Z,11.43
2023-04-17T12:57:54.128Z,12.67
2023-04-17T13:00:20.604Z,12.33
2023-04-17T13:02:47.451Z,11.80
2023-04-17T13:05:14.023Z,12.23
2023-04-17T13:07:40.852Z,11.13
2023-04-17T13:10:07.872Z,11.07
2023-04-17T13:12:34.725Z,11.97
2023-04-17T13:15:01.566Z,11.33
2023-04-17T13:17:28.091Z,11.20
2023-04-17T13:19:54.889Z,11.90
2023-04-17T13:22:21.343Z,11.97
2023-04-17T13:24:48.199Z,11.03
2023-04-17T13:27:14.673Z,11.93
2023-04-17T13:29:41.464Z,11.53
2023-04-17T13:32:08.814Z,11.33
2023-04-17T13:34:35.468Z,11.63
2023-04-17T13:37:01.988Z,11.20
2023-04-17T13:39:28.785Z,12.03
2023-04-17T13:41:55.595Z,11.70
2023-04-17T13:44:22.036Z,10.43
2023-04-17T13:46:48.592Z,11.77
2023-04-17T13:49:15.219Z,10.80
2023-04-17T13:51:42.166Z,10.47
2023-04-17T13:54:09.124Z,11.03
2023-04-17T13:56:36.378Z,11.23
2023-04-17T13:59:03.798Z,11.87
2023-04-17T14:01:30.271Z,11.23
2023-04-17T14:03:57.316Z,11.43
2023-04-17T14:06:23.909Z,10.50
2023-04-17T14:08:50.789Z,9.90
2023-04-17T14:11:17.237Z,8.50
2023-04-17T14:13:44.082Z,9.37
2023-04-17T14:16:10.649Z,9.50
2023-04-17T14:18:37.546Z,9.30
2023-04-17T14:21:04.591Z,9.40
2023-04-17T14:23:33.941Z,9.73
2023-04-17T14:26:00.770Z,8.83
2023-04-17T14:28:27.222Z,9.47
2023-04-17T14:30:54.040Z,9.30
2023-04-17T14:33:20.841Z,8.27
2023-04-17T14:35:47.349Z,9.30
2023-04-17T14:38:13.860Z,8.43
2023-04-17T14:40:40.337Z,8.93
2023-04-17T14:43:06.818Z,9.20
2023-04-17T14:45:33.310Z,9.00
2023-04-17T14:47:59.869Z,8.60
2023-04-17T14:50:26.396Z,7.97
2023-04-17T14:52:52.898Z,8.50
2023-04-17T14:55:19.699Z,7.73
2023-04-17T14:57:46.190Z,7.60
2023-04-17T15:00:13.634Z,7.83
2023-04-17T15:02:40.245Z,8.40
2023-04-17T15:05:07.381Z,8.43
2023-04-17T15:07:33.986Z,8.53
2023-04-17T15:10:00.931Z,8.47
2023-04-17T15:12:27.647Z,7.67
2023-04-17T15:14:54.471Z,8.60
2023-04-17T15:17:20.998Z,8.87
2023-04-17T15:19:47.874Z,8.67
2023-04-17T15:22:14.330Z,9.90
2023-04-17T15:24:40.971Z,10.00
2023-04-17T15:27:07.447Z,9.97
2023-04-17T15:29:33.905Z,10.40
2023-04-17T15:32:00.409Z,9.30
2023-04-17T15:34:27.131Z,7.97
2023-04-17T15:36:53.585Z,8.10
2023-04-17T15:39:20.016Z,8.13
2023-04-17T15:41:46.463Z,9.70
2023-04-17T15:44:13.310Z,9.40
2023-04-17T15:46:39.842Z,9.73
2023-04-17T15:51:53.610Z,9.30
2023-04-17T15:54:20.415Z,10.07
2023-04-17T15:56:46.932Z,10.40
2023-04-17T15:59:13.923Z,10.67
2023-04-17T16:01:40.487Z,10.63
2023-04-17T16:04:07.377Z,10.73
2023-04-17T16:06:34.217Z,10.57
2023-04-17T16:09:01.632Z,10.40
2023-04-17T16:11:28.086Z,10.60
2023-04-17T16:13:54.549Z,11.60
2023-04-17T16:16:21.039Z,10.83
2023-04-17T16:18:47.655Z,11.63
2023-04-17T16:21:14.560Z,10.90
2023-04-17T16:23:41.074Z,10.90
2023-04-17T16:26:07.945Z,10.83
2023-04-17T16:28:34.873Z,9.67
2023-04-17T16:31:01.753Z,9.90
2023-04-17T16:33:28.210Z,9.43
2023-04-17T16:35:55.763Z,9.63
2023-04-17T16:38:22.264Z,10.10
2023-04-17T16:40:49.091Z,10.70
2023-04-17T16:43:15.538Z,9.17
2023-04-17T16:45:41.962Z,9.30
2023-04-17T16:48:08.528Z,8.97
2023-04-17T16:50:35.021Z,8.60
2023-04-17T16:53:01.921Z,9.43
2023-04-17T16:55:28.443Z,9.43
2023-04-17T16:57:54.883Z,8.80
2023-04-17T17:00:21.528Z,9.20
2023-04-17T17:02:49.893Z,9.07
2023-04-17T17:05:16.827Z,9.53
2023-04-17T17:07:43.306Z,9.30
2023-04-17T17:10:10.571Z,9.50
2023-04-17T17:12:37.181Z,9.13
2023-04-17T17:15:05.629Z,9.40
2023-04-17T17:17:32.274Z,9.97
2023-04-17T17:19:59.121Z,9.40
2023-04-17T17:22:26.081Z,9.20
2023-04-17T17:24:52.506Z,9.13
2023-04-17T17:27:18.970Z,9.70
2023-04-17T17:29:45.443Z,9.57
2023-04-17T17:32:11.931Z,10.23
2023-04-17T17:34:38.418Z,9.57
2023-04-17T17:37:04.870Z,10.73
2023-04-17T17:39:31.333Z,9.80
2023-04-17T17:41:57.795Z,10.23
2023-04-17T17:44:24.550Z,10.57
2023-04-17T17:46:51.019Z,9.90
2023-04-17T17:49:17.519Z,10.23
2023-04-17T17:51:44.065Z,10.43
2023-04-17T17:54:10.813Z,10.63
2023-04-17T17:56:37.535Z,10.00
2023-04-17T17:59:03.988Z,10.17
2023-04-17T18:01:30.510Z,10.87
2023-04-17T18:03:57.192Z,11.37
2023-04-17T18:06:23.781Z,10.90
2023-04-17T18:08:50.229Z,11.07
2023-04-17T18:11:16.817Z,10.20
2023-04-17T18:13:43.297Z,11.17
2023-04-17T18:16:10.541Z,11.17
2023-04-17T18:18:37.036Z,11.40
2023-04-17T18:21:07.802Z,12.20
2023-04-17T18:23:34.912Z,12.00
2023-04-17T18:26:03.025Z,11.33
2023-04-17T18:28:29.574Z,10.93
2023-04-17T18:30:56.195Z,10.80
2023-04-17T18:33:23.011Z,11.20
2023-04-17T18:35:49.502Z,10.77
2023-04-17T18:38:16.122Z,10.87
2023-04-17T18:40:42.568Z,10.63
2023-04-17T18:43:09.007Z,10.90
2023-04-17T18:45:35.830Z,11.77
2023-04-17T18:48:02.777Z,11.40
2023-04-17T18:50:29.320Z,11.17
2023-04-17T18:52:55.781Z,11.53
2023-04-17T18:55:22.389Z,12.27
2023-04-17T18:57:49.060Z,12.50
2023-04-17T19:00:15.734Z,13.30
2023-04-17T19:02:42.348Z,13.00
2023-04-17T19:05:09.451Z,12.53
2023-04-17T19:07:36.093Z,13.63
2023-04-17T19:10:02.560Z,14.53
2023-04-17T19:12:29.002Z,13.07
2023-04-17T19:14:56.317Z,13.77
2023-04-17T19:17:23.418Z,13.87
2023-04-17T19:19:50.250Z,14.07
2023-04-17T19:22:16.732Z,13.47
2023-04-17T19:24:43.230Z,15.17
2023-04-17T19:27:10.091Z,13.67
2023-04-17T19:29:36.529Z,14.47
2023-04-17T19:32:03.568Z,14.47
2023-04-17T19:34:30.033Z,14.47
2023-04-17T19:36:56.751Z,14.70
2023-04-17T19:39:23.215Z,15.30
2023-04-17T19:41:49.755Z,14.90
2023-04-17T19:44:16.926Z,14.50
2023-04-17T19:46:43.797Z,14.47
2023-04-17T19:49:11.149Z,14.50
2023-04-17T19:51:39.017Z,14.63
2023-04-17T19:54:05.585Z,14.33
2023-04-17T19:56:32.084Z,14.00
2023-04-17T19:59:02.175Z,13.60
2023-04-17T20:01:30.794Z,14.30
2023-04-17T20:03:58.632Z,13.77
2023-04-17T20:06:25.682Z,13.77
2023-04-17T20:08:52.212Z,14.57
2023-04-17T20:11:19.112Z,15.00
2023-04-17T20:13:46.417Z,14.87
2023-04-17T20:16:13.325Z,14.13
2023-04-17T20:18:39.876Z,14.67
2023-04-17T20:21:06.349Z,15.03
2023-04-17T20:23:33.023Z,15.17
2023-04-17T20:25:59.533Z,14.70
2023-04-17T20:28:26.006Z,14.53
2023-04-17T20:30:52.895Z,15.90
2023-04-17T20:33:19.716Z,13.47
2023-04-17T20:35:46.228Z,13.73
2023-04-17T20:38:12.743Z,14.03
2023-04-17T20:40:39.197Z,13.40
2023-04-17T20:43:05.682Z,13.77
2023-04-17T20:45:32.241Z,14.40
2023-04-17T20:47:58.724Z,13.33
2023-04-17T20:50:25.232Z,14.57
2023-04-17T20:52:52.018Z,15.03
2023-04-17T20:55:18.537Z,13.90
2023-04-17T20:57:45.201Z,14.67
2023-04-17T21:00:12.189Z,15.07
2023-04-17T21:02:38.905Z,15.07
2023-04-17T21:05:06.822Z,16.37
2023-04-17T21:07:33.706Z,15.90
2023-04-17T21:10:00.162Z,14.63
2023-04-17T21:12:26.773Z,13.60
2023-04-17T21:14:53.542Z,13.80
2023-04-17T21:17:20.089Z,13.93
2023-04-17T21:19:46.560Z,15.47
2023-04-17T21:22:13.166Z,12.63
2023-04-17T21:24:39.698Z,15.47
2023-04-17T21:27:06.188Z,15.67
2023-04-17T21:29:33.012Z,15.93
2023-04-17T21:31:59.532Z,15.93
2023-04-17T21:34:26.182Z,15.40
2023-04-17T21:36:53.878Z,14.70
2023-04-17T21:39:21.945Z,14.17
2023-04-17T21:41:48.421Z,16.93
2023-04-17T21:44:15.909Z,14.33
2023-04-17T21:46:45.668Z,14.63
2023-04-17T21:49:12.492Z,14.57
2023-04-17T21:51:39.019Z,14.87
2023-04-17T21:54:05.859Z,13.27
2023-04-17T21:56:32.420Z,14.17
2023-04-17T21:58:59.199Z,14.10
2023-04-17T22:01:25.670Z,13.50
2023-04-17T22:03:52.226Z,13.10
2023-04-17T22:06:19.285Z,15.60
2023-04-17T22:08:46.130Z,13.80
2023-04-17T22:11:12.898Z,13.33
2023-04-17T22:13:39.342Z,12.87
2023-04-17T22:16:06.764Z,13.20
2023-04-17T22:18:33.228Z,12.20
2023-04-17T22:21:00.085Z,12.33
2023-04-17T22:23:27.025Z,11.43
2023-04-17T22:25:53.505Z,11.10
2023-04-17T22:28:20.299Z,10.87
2023-04-17T22:30:50.044Z,10.30
2023-04-17T22:33:16.979Z,10.03
2023-04-17T22:35:43.815Z,9.70
2023-04-17T22:38:10.280Z,10.00
2023-04-17T22:40:37.076Z,9.50
2023-04-17T22:43:03.526Z,10.20
2023-04-17T22:45:30.335Z,9.73
2023-04-17T22:47:57.291Z,10.47
2023-04-17T22:50:24.198Z,10.23
2023-04-17T22:52:50.783Z,10.87
2023-04-17T22:55:17.624Z,11.53
2023-04-17T22:57:44.434Z,13.77
2023-04-17T23:00:11.335Z,11.77
2023-04-17T23:02:37.897Z,11.37
2023-04-17T23:05:06.004Z,11.23
2023-04-17T23:07:32.617Z,11.00
2023-04-17T23:09:59.520Z,9.33
2023-04-17T23:12:25.989Z,9.30
2023-04-17T23:14:52.823Z,8.93
2023-04-17T23:17:19.313Z,9.00
2023-04-17T23:19:46.130Z,9.43
2023-04-17T23:22:12.672Z,11.10
2023-04-17T23:24:39.579Z,8.77
2023-04-17T23:27:06.030Z,8.57
2023-04-17T23:29:32.482Z,11.67
2023-04-17T23:31:59.327Z,10.23
2023-04-17T23:34:26.121Z,11.57
2023-04-17T23:36:52.942Z,10.17
2023-04-17T23:39:19.374Z,11.90
2023-04-17T23:41:46.205Z,11.07
2023-04-17T23:44:12.851Z,11.97
2023-04-17T23:46:40.095Z,9.20
2023-04-17T23:49:06.732Z,11.63
2023-04-17T23:51:33.703Z,10.60
2023-04-17T23:54:00.629Z,12.17
2023-04-17T23:56:27.902Z,10.83
2023-04-17T23:58:54.726Z,9.77
